CheckWX is a tool to help pilots better visualize weather data.  It is not intended as a substitute for an official pre-flight weather briefing.

15:09:03 UTC

HTSO METAR
Songea Airport
Songea, Tanzania
Current

1 hour ago

HTSO 161400Z 12007KT 9999 SCT018 21/11 Q1024
Observed
Jul-16 @ 14:00 UTC
Wind
  • 120° at 7 KTS
Visibility
10,000+ meters
Flight Rules
VFR
Cloud Levels
  • Scattered at 1,800' AGL
Temperature
21°C / 70°F
Dewpoint
11°C / 52°F
Humidity
53%
Altimeter
30.24" Hg
Pressure
1023.92 hPa
Previous

2 hours ago

HTSO 161300Z 14010KT 9999 BKN018 22/11 Q1024
Observed
Jul-16 @ 13:00 UTC
Wind
  • 140° at 10 KTS
Visibility
10,000+ meters
Flight Rules
MVFR
Cloud Levels
  • Broken at 1,800' AGL
Temperature
22°C / 72°F
Dewpoint
11°C / 52°F
Humidity
50%
Altimeter
30.24" Hg
Pressure
1023.92 hPa
Previous

3 hours ago

HTSO 161200Z 07012KT 9999 BKN018 23/11 Q1024
Observed
Jul-16 @ 12:00 UTC
Wind
  • 070° at 12 KTS
Visibility
10,000+ meters
Flight Rules
MVFR
Cloud Levels
  • Broken at 1,800' AGL
Temperature
23°C / 73°F
Dewpoint
11°C / 52°F
Humidity
47%
Altimeter
30.24" Hg
Pressure
1023.92 hPa